createdAt,value
2017-12-03T00:00:47.298Z,0
2017-12-03T00:01:57.351Z,0
2017-12-03T00:03:06.919Z,0
2017-12-03T00:04:17.046Z,0
2017-12-03T00:05:27.101Z,0
2017-12-03T00:06:36.891Z,0
2017-12-03T00:07:47.189Z,0
2017-12-03T00:08:57.032Z,0
2017-12-03T00:10:07.094Z,0
2017-12-03T00:11:16.897Z,0
2017-12-03T00:12:26.704Z,0
2017-12-03T00:13:36.781Z,0
2017-12-03T00:14:46.849Z,0
2017-12-03T00:15:56.724Z,0
2017-12-03T00:17:06.830Z,0
2017-12-03T00:18:16.888Z,0
2017-12-03T00:19:26.974Z,0
2017-12-03T00:20:37.041Z,0
2017-12-03T00:21:46.836Z,0
2017-12-03T00:22:56.366Z,0
2017-12-03T00:24:06.451Z,0
2017-12-03T00:25:16.554Z,0
2017-12-03T00:26:26.624Z,0
2017-12-03T00:27:36.421Z,0
2017-12-03T00:28:46.632Z,0
2017-12-03T00:29:56.685Z,0
2017-12-03T00:31:06.478Z,0
2017-12-03T00:32:16.281Z,0
2017-12-03T00:33:26.372Z,0
2017-12-03T00:34:36.188Z,0
2017-12-03T00:35:46.001Z,0
2017-12-03T00:36:56.071Z,0
2017-12-03T00:38:05.634Z,0
2017-12-03T00:39:15.734Z,0
2017-12-03T00:40:25.521Z,0
2017-12-03T00:41:35.589Z,0
2017-12-03T00:42:45.414Z,0
2017-12-03T00:43:55.460Z,0
2017-12-03T00:45:05.023Z,0
2017-12-03T00:46:14.827Z,0
2017-12-03T00:47:24.639Z,0
2017-12-03T00:48:34.572Z,0
2017-12-03T00:49:44.620Z,0
2017-12-03T00:50:54.411Z,0
2017-12-03T00:52:04.470Z,0
2017-12-03T00:53:14.523Z,0
2017-12-03T00:54:24.585Z,0
2017-12-03T00:55:34.444Z,0
2017-12-03T00:56:43.983Z,0
2017-12-03T00:57:53.794Z,0
2017-12-03T00:59:03.605Z,0
2017-12-03T01:00:13.680Z,0
2017-12-03T01:01:24.528Z,0
2017-12-03T01:02:34.420Z,0
2017-12-03T01:03:44.476Z,0
2017-12-03T01:04:54.536Z,0
2017-12-03T01:06:04.595Z,0
2017-12-03T01:07:14.710Z,0
2017-12-03T01:08:24.493Z,0
2017-12-03T01:09:34.548Z,0
2017-12-03T01:10:44.087Z,0
2017-12-03T01:11:54.138Z,0
2017-12-03T01:13:03.989Z,0
2017-12-03T01:14:14.048Z,0
2017-12-03T01:15:24.101Z,0
2017-12-03T01:16:34.144Z,0
2017-12-03T01:17:43.951Z,0
2017-12-03T01:18:53.746Z,0
2017-12-03T01:20:04.122Z,0
2017-12-03T01:21:13.895Z,0
2017-12-03T01:22:22.915Z,0
2017-12-03T01:23:32.474Z,0
2017-12-03T01:24:42.533Z,0
2017-12-03T01:25:52.598Z,0
2017-12-03T01:27:02.659Z,0
2017-12-03T01:28:12.169Z,0
2017-12-03T01:29:21.703Z,0
2017-12-03T01:30:31.505Z,0
2017-12-03T01:31:41.552Z,0
2017-12-03T01:32:51.606Z,0
2017-12-03T01:34:01.141Z,0
2017-12-03T01:35:11.214Z,0
2017-12-03T01:36:21.359Z,0
2017-12-03T01:37:31.164Z,0
2017-12-03T01:38:40.965Z,0
2017-12-03T01:39:50.784Z,0
2017-12-03T01:41:00.578Z,0
2017-12-03T01:42:10.405Z,0
2017-12-03T01:43:20.437Z,0
2017-12-03T01:44:30.198Z,0
2017-12-03T01:45:40.257Z,0
2017-12-03T01:46:49.771Z,0
2017-12-03T01:47:59.872Z,0
2017-12-03T01:49:09.944Z,0
2017-12-03T01:50:19.742Z,0
2017-12-03T01:51:29.552Z,0
2017-12-03T01:52:39.614Z,0
2017-12-03T01:53:49.740Z,0
2017-12-03T01:54:59.793Z,0
2017-12-03T01:56:09.623Z,0
2017-12-03T01:57:19.677Z,0
2017-12-03T01:58:29.469Z,0
2017-12-03T01:59:39.576Z,0
2017-12-03T02:00:49.639Z,0
2017-12-03T02:01:59.694Z,0
2017-12-03T02:03:09.739Z,0
2017-12-03T02:04:19.566Z,0
2017-12-03T02:05:29.417Z,0
2017-12-03T02:06:39.216Z,0
2017-12-03T02:07:49.260Z,0
2017-12-03T02:08:59.079Z,0
2017-12-03T02:10:08.908Z,0
2017-12-03T02:11:19.012Z,0
2017-12-03T02:12:28.812Z,0
2017-12-03T02:13:38.887Z,0
2017-12-03T02:14:48.684Z,0
2017-12-03T02:15:58.492Z,0
2017-12-03T02:17:08.291Z,0
2017-12-03T02:18:18.075Z,0
2017-12-03T02:19:28.132Z,0
2017-12-03T02:20:38.196Z,0
2017-12-03T02:21:48.255Z,0
2017-12-03T02:22:57.846Z,0
2017-12-03T02:24:08.087Z,0
2017-12-03T02:25:17.622Z,0
2017-12-03T02:26:27.783Z,0
2017-12-03T02:27:37.060Z,0
2017-12-03T02:28:47.121Z,0
2017-12-03T02:29:56.646Z,0
2017-12-03T02:31:06.717Z,0
2017-12-03T02:32:16.777Z,0
2017-12-03T02:33:26.831Z,0
2017-12-03T02:34:36.935Z,0
2017-12-03T02:35:46.734Z,0
2017-12-03T02:36:56.293Z,0
2017-12-03T02:38:07.208Z,0
2017-12-03T02:39:17.000Z,0
2017-12-03T02:40:28.037Z,0
2017-12-03T02:41:37.833Z,0
2017-12-03T02:42:47.886Z,0
2017-12-03T02:43:57.708Z,0
2017-12-03T02:45:07.755Z,0
2017-12-03T02:46:17.339Z,0
2017-12-03T02:47:26.881Z,0
2017-12-03T02:48:36.954Z,0
2017-12-03T02:49:46.754Z,0
2017-12-03T02:50:56.820Z,0
2017-12-03T02:52:06.662Z,0
2017-12-03T02:53:16.734Z,0
2017-12-03T02:54:26.782Z,0
2017-12-03T02:55:36.322Z,0
2017-12-03T02:56:46.111Z,0
2017-12-03T02:57:55.962Z,0
2017-12-03T02:59:05.742Z,0
2017-12-03T03:00:15.561Z,0
2017-12-03T03:01:25.084Z,0
2017-12-03T03:02:34.613Z,0
2017-12-03T03:34:09.670Z,0
2017-12-03T03:35:19.440Z,0
2017-12-03T03:36:29.487Z,0
2017-12-03T03:37:40.035Z,0
2017-12-03T03:38:50.065Z,0
2017-12-03T03:39:59.906Z,0
2017-12-03T03:41:09.453Z,0
2017-12-03T03:42:19.245Z,0
2017-12-03T03:43:29.298Z,0
2017-12-03T03:44:39.355Z,0
2017-12-03T03:45:49.534Z,0
2017-12-03T03:46:59.305Z,0
2017-12-03T03:48:08.834Z,0
2017-12-03T03:49:18.873Z,0
2017-12-03T03:50:28.928Z,0
2017-12-03T03:51:38.776Z,0
2017-12-03T03:52:48.564Z,0
2017-12-03T03:53:58.399Z,0
2017-12-03T03:55:08.454Z,0
2017-12-03T03:56:17.998Z,0
2017-12-03T03:57:27.834Z,0
2017-12-03T03:58:37.635Z,0
2017-12-03T03:59:48.487Z,0
2017-12-03T04:00:58.549Z,0
2017-12-03T04:02:08.348Z,0
2017-12-03T04:03:18.398Z,0
2017-12-03T04:04:28.190Z,0
2017-12-03T04:05:37.992Z,0
2017-12-03T04:06:47.809Z,0
2017-12-03T04:07:57.863Z,0
2017-12-03T04:09:07.975Z,0
2017-12-03T04:10:17.763Z,0
2017-12-03T04:11:27.559Z,0
2017-12-03T04:12:37.078Z,0
2017-12-03T04:13:46.867Z,0
2017-12-03T04:14:56.665Z,0
2017-12-03T04:16:06.727Z,0
2017-12-03T04:17:16.523Z,0
2017-12-03T04:18:26.310Z,0
2017-12-03T04:19:36.107Z,0
2017-12-03T04:20:45.956Z,0
2017-12-03T04:21:56.045Z,0
2017-12-03T04:23:05.852Z,0
2017-12-03T04:24:15.640Z,0
2017-12-03T04:25:25.424Z,0
2017-12-03T04:26:35.545Z,0
2017-12-03T04:27:45.344Z,0
2017-12-03T04:28:55.403Z,0
2017-12-03T04:30:05.454Z,0
2017-12-03T04:31:16.993Z,0
2017-12-03T04:32:27.102Z,0
2017-12-03T04:33:37.160Z,0
2017-12-03T04:34:46.979Z,0
2017-12-03T04:35:56.517Z,0
2017-12-03T04:37:06.576Z,0
2017-12-03T04:38:16.609Z,0
2017-12-03T04:39:26.671Z,0
2017-12-03T04:40:35.932Z,0
2017-12-03T04:41:45.799Z,0
2017-12-03T04:42:55.595Z,0
2017-12-03T04:44:05.442Z,0
2017-12-03T04:45:15.511Z,0
2017-12-03T04:46:25.574Z,0
2017-12-03T04:47:35.367Z,0
2017-12-03T04:48:45.434Z,0
2017-12-03T04:49:55.273Z,0
2017-12-03T04:51:05.068Z,0
2017-12-03T04:52:15.131Z,0
2017-12-03T04:53:25.197Z,0
2017-12-03T04:54:35.268Z,0
2017-12-03T04:55:45.381Z,0
2017-12-03T04:56:55.446Z,0
2017-12-03T04:58:05.249Z,0
2017-12-03T04:59:15.285Z,0
2017-12-03T05:00:25.625Z,0
2017-12-03T05:01:35.440Z,0
2017-12-03T05:02:45.511Z,0
2017-12-03T05:03:55.314Z,0
2017-12-03T05:05:05.102Z,0
2017-12-03T05:06:15.162Z,0
2017-12-03T05:07:25.314Z,0
2017-12-03T05:08:35.377Z,0
2017-12-03T05:09:45.171Z,0
2017-12-03T05:10:54.966Z,0
2017-12-03T05:12:05.048Z,0
2017-12-03T05:13:14.891Z,0
2017-12-03T05:14:24.428Z,0
2017-12-03T05:15:34.236Z,0
2017-12-03T05:16:44.281Z,0
2017-12-03T05:17:54.065Z,0
2017-12-03T05:19:04.170Z,0
2017-12-03T05:20:13.962Z,0
2017-12-03T05:21:23.997Z,0
2017-12-03T05:22:34.061Z,0
2017-12-03T05:23:44.119Z,0
2017-12-03T05:24:53.907Z,0
2017-12-03T05:26:03.697Z,0
2017-12-03T05:27:13.219Z,0
2017-12-03T05:28:23.281Z,0
2017-12-03T05:29:33.362Z,0
2017-12-03T05:30:43.153Z,0
2017-12-03T05:31:52.942Z,0
2017-12-03T05:33:02.998Z,0
2017-12-03T05:34:12.790Z,0
2017-12-03T05:35:22.860Z,0
2017-12-03T05:36:32.712Z,0
2017-12-03T05:37:42.529Z,0
2017-12-03T05:38:52.581Z,0
2017-12-03T05:40:02.631Z,0
2017-12-03T05:41:12.701Z,0
2017-12-03T05:42:22.800Z,0
2017-12-03T05:43:32.863Z,0
2017-12-03T05:44:42.381Z,0
2017-12-03T05:45:52.186Z,0
2017-12-03T05:47:02.016Z,0
2017-12-03T05:48:12.071Z,0
2017-12-03T05:49:21.865Z,0
2017-12-03T05:50:31.698Z,0
2017-12-03T05:51:41.767Z,0
2017-12-03T05:52:51.311Z,0
2017-12-03T05:54:01.384Z,0
2017-12-03T05:55:11.168Z,0
2017-12-03T05:56:21.250Z,0
2017-12-03T05:57:31.032Z,0
2017-12-03T05:58:41.098Z,0
2017-12-03T05:59:50.897Z,0
2017-12-03T06:01:00.983Z,4
2017-12-03T06:02:10.776Z,4
2017-12-03T06:03:20.577Z,4
2017-12-03T06:04:30.619Z,0
2017-12-03T06:05:40.417Z,4
2017-12-03T06:06:50.487Z,4
2017-12-03T06:08:00.525Z,4
2017-12-03T06:09:10.586Z,4
2017-12-03T06:10:20.385Z,4
2017-12-03T06:11:30.233Z,8
2017-12-03T06:12:40.023Z,8
2017-12-03T06:13:50.091Z,8
2017-12-03T06:14:59.636Z,8
2017-12-03T06:16:09.707Z,12
2017-12-03T06:17:19.290Z,12
2017-12-03T06:18:29.344Z,16
2017-12-03T06:19:39.379Z,16
2017-12-03T06:20:49.435Z,20
2017-12-03T06:21:58.963Z,24
2017-12-03T06:23:08.807Z,24
2017-12-03T06:24:18.902Z,28
2017-12-03T06:25:28.955Z,32
2017-12-03T06:26:39.007Z,32
2017-12-03T06:27:49.064Z,36
2017-12-03T06:28:59.130Z,44
2017-12-03T06:30:09.172Z,44
2017-12-03T06:31:18.699Z,48
2017-12-03T06:32:28.496Z,56
2017-12-03T06:33:38.552Z,64
2017-12-03T06:34:48.660Z,68
2017-12-03T06:35:59.618Z,76
2017-12-03T06:37:09.675Z,80
2017-12-03T06:38:19.720Z,88
2017-12-03T06:39:29.781Z,96
2017-12-03T06:40:39.884Z,104
2017-12-03T06:41:49.936Z,112
2017-12-03T06:42:59.206Z,120
2017-12-03T06:44:09.291Z,128
2017-12-03T06:45:19.077Z,132
2017-12-03T06:46:29.182Z,140
2017-12-03T06:47:39.233Z,140
2017-12-03T06:48:49.031Z,144
2017-12-03T06:49:59.093Z,148
2017-12-03T06:51:08.890Z,156
2017-12-03T06:52:18.171Z,164
2017-12-03T06:53:27.970Z,172
2017-12-03T06:54:37.509Z,184
2017-12-03T06:55:47.554Z,196
2017-12-03T06:56:57.628Z,212
2017-12-03T06:58:07.683Z,232
2017-12-03T06:59:17.466Z,248
2017-12-03T07:00:27.518Z,256
2017-12-03T07:01:37.056Z,268
2017-12-03T07:02:46.842Z,276
2017-12-03T07:03:56.918Z,284
2017-12-03T07:05:06.907Z,288
2017-12-03T07:06:16.971Z,296
2017-12-03T07:07:27.020Z,308
2017-12-03T07:08:36.824Z,324
2017-12-03T07:09:46.632Z,336
2017-12-03T07:10:56.724Z,348
2017-12-03T07:12:06.905Z,360
2017-12-03T07:13:16.970Z,372
2017-12-03T07:14:26.518Z,392
2017-12-03T07:15:36.592Z,412
2017-12-03T07:16:46.657Z,436
2017-12-03T07:17:56.826Z,460
2017-12-03T07:19:06.903Z,488
2017-12-03T07:20:16.723Z,512
2017-12-03T07:21:26.851Z,540
2017-12-03T07:22:36.668Z,576
2017-12-03T07:23:46.719Z,612
2017-12-03T07:24:56.767Z,652
2017-12-03T07:26:06.293Z,680
2017-12-03T07:27:16.384Z,692
2017-12-03T07:28:26.197Z,696
2017-12-03T07:29:36.326Z,696
2017-12-03T07:30:45.849Z,700
2017-12-03T07:31:55.920Z,696
2017-12-03T07:33:05.772Z,700
2017-12-03T07:34:15.822Z,708
2017-12-03T07:35:25.596Z,720
2017-12-03T07:36:35.384Z,732
2017-12-03T07:37:44.920Z,752
2017-12-03T07:38:55.012Z,768
2017-12-03T07:40:04.817Z,792
2017-12-03T07:41:14.624Z,816
2017-12-03T07:42:24.427Z,840
2017-12-03T07:43:34.503Z,864
2017-12-03T07:44:43.788Z,892
2017-12-03T07:45:53.334Z,916
2017-12-03T07:47:03.193Z,952
2017-12-03T07:48:13.238Z,972
2017-12-03T07:49:23.294Z,988
2017-12-03T07:50:33.092Z,1000
2017-12-03T07:51:43.161Z,1012
2017-12-03T07:52:53.219Z,1016
2017-12-03T07:54:02.750Z,1020
2017-12-03T07:55:12.882Z,1032
2017-12-03T07:56:22.943Z,1036
2017-12-03T07:57:32.746Z,1040
2017-12-03T07:58:42.879Z,1040
2017-12-03T07:59:52.934Z,1036
2017-12-03T08:01:02.995Z,1032
2017-12-03T08:02:13.352Z,1024
2017-12-03T08:03:23.441Z,1016
2017-12-03T08:04:33.246Z,1008
2017-12-03T08:05:42.787Z,996
2017-12-03T08:06:52.841Z,980
2017-12-03T08:08:02.910Z,968
2017-12-03T08:09:12.953Z,964
2017-12-03T08:10:22.762Z,960
2017-12-03T08:11:34.798Z,964
2017-12-03T08:12:44.866Z,964
2017-12-03T08:13:55.098Z,976
2017-12-03T08:15:04.924Z,980
2017-12-03T08:16:14.724Z,988
2017-12-03T08:17:24.281Z,1004
2017-12-03T08:18:34.321Z,1020
2017-12-03T08:19:44.128Z,1036
2017-12-03T08:20:54.190Z,1048
2017-12-03T08:22:04.699Z,1048
2017-12-03T08:23:14.781Z,1036
2017-12-03T08:24:24.587Z,1012
2017-12-03T08:25:34.647Z,988
2017-12-03T08:26:44.453Z,972
2017-12-03T08:27:54.512Z,956
2017-12-03T08:29:04.316Z,940
2017-12-03T08:30:13.577Z,928
2017-12-03T08:31:23.470Z,920
2017-12-03T08:32:33.579Z,912
2017-12-03T08:33:43.395Z,912
2017-12-03T08:34:52.915Z,920
2017-12-03T08:36:02.979Z,932
2017-12-03T08:37:13.044Z,948
2017-12-03T08:38:23.088Z,964
2017-12-03T08:39:34.562Z,984
2017-12-03T08:40:44.374Z,996
2017-12-03T08:41:54.157Z,1004
2017-12-03T08:43:04.279Z,1008
2017-12-03T08:44:14.330Z,1012
2017-12-03T08:45:24.459Z,1012
2017-12-03T08:46:34.555Z,1008
2017-12-03T08:47:44.608Z,1004
2017-12-03T08:48:54.463Z,1004
2017-12-03T08:50:04.531Z,996
2017-12-03T08:51:14.320Z,992
2017-12-03T08:52:24.390Z,984
2017-12-03T08:53:34.520Z,976
2017-12-03T08:54:44.341Z,972
2017-12-03T08:55:54.402Z,972
2017-12-03T08:57:03.941Z,980
2017-12-03T08:58:14.008Z,992
2017-12-03T08:59:25.172Z,1008
2017-12-03T09:00:34.989Z,1028
2017-12-03T09:01:45.061Z,1040
2017-12-03T09:02:54.847Z,1064
2017-12-03T09:04:04.659Z,1084
2017-12-03T09:05:14.733Z,1108
2017-12-03T09:06:24.802Z,1132
2017-12-03T09:07:34.595Z,1168
2017-12-03T09:08:44.672Z,1200
2017-12-03T09:09:54.732Z,1232
2017-12-03T09:11:04.530Z,1268
2017-12-03T09:12:14.320Z,1300
2017-12-03T09:13:24.402Z,1336
2017-12-03T09:14:34.456Z,1360
2017-12-03T09:15:44.293Z,1388
2017-12-03T09:16:54.354Z,1408
2017-12-03T09:18:04.205Z,1428
2017-12-03T09:19:14.264Z,1456
2017-12-03T09:20:24.335Z,1488
2017-12-03T09:21:34.282Z,1520
2017-12-03T09:22:44.111Z,1552
2017-12-03T09:23:54.197Z,1588
2017-12-03T09:25:04.282Z,1620
2017-12-03T09:26:14.366Z,1640
2017-12-03T09:27:23.901Z,1664
2017-12-03T09:28:33.963Z,1692
2017-12-03T09:29:43.581Z,1716
2017-12-03T09:30:53.631Z,1756
2017-12-03T09:32:03.189Z,1792
2017-12-03T09:33:13.002Z,1840
2017-12-03T09:34:23.086Z,1896
2017-12-03T09:35:33.141Z,1964
2017-12-03T09:36:42.932Z,2028
2017-12-03T09:37:52.747Z,2076
2017-12-03T09:39:02.824Z,2112
2017-12-03T09:40:12.875Z,2148
2017-12-03T09:41:22.463Z,2200
2017-12-03T09:42:32.272Z,2260
2017-12-03T09:43:42.085Z,2332
2017-12-03T09:44:52.458Z,2396
2017-12-03T09:46:02.531Z,2464
2017-12-03T09:47:12.336Z,2512
2017-12-03T09:48:22.135Z,2524
2017-12-03T09:49:33.684Z,2524
2017-12-03T09:50:43.754Z,2504
2017-12-03T09:51:53.837Z,2460
2017-12-03T09:53:04.231Z,2396
2017-12-03T09:54:14.375Z,2316
2017-12-03T09:55:24.207Z,2240
2017-12-03T09:56:34.036Z,2164
2017-12-03T09:57:43.600Z,2104
2017-12-03T09:58:53.472Z,2056
2017-12-03T10:00:03.555Z,2032
2017-12-03T10:01:13.622Z,2028
2017-12-03T10:02:23.709Z,2044
2017-12-03T10:03:34.033Z,2068
2017-12-03T10:04:43.852Z,2100
2017-12-03T10:05:53.388Z,2128
2017-12-03T10:07:03.190Z,2136
2017-12-03T10:08:12.743Z,2148
2017-12-03T10:09:22.809Z,2176
2017-12-03T10:10:32.669Z,2208
2017-12-03T10:11:42.470Z,2260
2017-12-03T10:12:52.283Z,2316
2017-12-03T10:14:02.361Z,2364
2017-12-03T10:15:12.454Z,2392
2017-12-03T10:16:22.367Z,2408
2017-12-03T10:17:32.446Z,2412
2017-12-03T10:18:42.238Z,2404
2017-12-03T10:19:52.034Z,2388
2017-12-03T10:21:02.082Z,2356
2017-12-03T10:22:11.863Z,2312
2017-12-03T10:23:21.694Z,2256
2017-12-03T10:24:31.786Z,2212
2017-12-03T10:25:41.342Z,2172
2017-12-03T10:26:51.145Z,2140
2017-12-03T10:28:01.265Z,2116
2017-12-03T10:29:11.074Z,2084
2017-12-03T10:30:21.186Z,2044
2017-12-03T10:31:31.246Z,2040
2017-12-03T10:32:40.794Z,2048
2017-12-03T10:33:50.590Z,2048
2017-12-03T10:35:00.390Z,2036
2017-12-03T10:36:10.480Z,2020
2017-12-03T10:37:20.269Z,2008
2017-12-03T10:38:30.076Z,2020
2017-12-03T10:39:39.857Z,2076
2017-12-03T10:40:49.667Z,2164
2017-12-03T10:42:00.650Z,2264
2017-12-03T10:43:10.201Z,2376
2017-12-03T10:44:20.267Z,2480
2017-12-03T10:45:29.701Z,2580
2017-12-03T10:46:39.508Z,2652
2017-12-03T10:47:49.593Z,2704
2017-12-03T10:48:59.706Z,2732
2017-12-03T10:50:09.521Z,2744
2017-12-03T10:51:19.132Z,2752
2017-12-03T10:52:29.215Z,2760
2017-12-03T10:53:41.409Z,2772
2017-12-03T10:54:51.501Z,2784
2017-12-03T10:56:01.580Z,2796
2017-12-03T10:57:11.752Z,2820
2017-12-03T10:58:21.863Z,2852
2017-12-03T10:59:31.964Z,2892
2017-12-03T11:00:42.631Z,2932
2017-12-03T11:01:52.718Z,2964
2017-12-03T11:03:02.854Z,2996
2017-12-03T11:04:12.943Z,3032
2017-12-03T11:05:23.011Z,3056
2017-12-03T11:06:33.079Z,3084
2017-12-03T11:07:43.166Z,3088
2017-12-03T11:08:53.285Z,3088
2017-12-03T11:10:02.835Z,3076
2017-12-03T11:11:13.511Z,3048
2017-12-03T11:12:23.072Z,3020
2017-12-03T11:13:33.152Z,2992
2017-12-03T11:14:44.148Z,2960
2017-12-03T11:15:54.249Z,2920
2017-12-03T11:17:04.327Z,2884
2017-12-03T11:18:14.425Z,2844
2017-12-03T11:19:24.225Z,2812
2017-12-03T11:20:34.357Z,2792
2017-12-03T11:21:44.427Z,2772
2017-12-03T11:22:54.505Z,2752
2017-12-03T11:24:04.648Z,2732
2017-12-03T11:25:14.712Z,2716
2017-12-03T11:26:24.524Z,2688
2017-12-03T11:27:34.671Z,2668
2017-12-03T11:28:44.504Z,2640
2017-12-03T11:29:54.578Z,2616
2017-12-03T11:31:04.383Z,2592
2017-12-03T11:32:14.496Z,2580
2017-12-03T11:33:24.567Z,2580
2017-12-03T11:34:34.113Z,2584
2017-12-03T11:35:44.250Z,2584
2017-12-03T11:36:54.040Z,2568
2017-12-03T11:38:03.843Z,2556
2017-12-03T11:39:13.398Z,2532
2017-12-03T11:40:23.202Z,2508
2017-12-03T11:41:33.247Z,2480
2017-12-03T11:42:43.072Z,2464
2017-12-03T11:43:52.946Z,2428
2017-12-03T11:45:02.490Z,2392
2017-12-03T11:46:12.304Z,2352
2017-12-03T11:47:22.607Z,2312
2017-12-03T11:48:32.682Z,2264
2017-12-03T11:49:42.772Z,2240
2017-12-03T11:50:52.864Z,2236
2017-12-03T11:52:02.428Z,2252
2017-12-03T11:53:12.507Z,2272
2017-12-03T11:54:22.568Z,2296
2017-12-03T11:55:32.363Z,2308
2017-12-03T11:56:42.163Z,2316
2017-12-03T11:57:52.221Z,2328
2017-12-03T11:59:02.035Z,2344
2017-12-03T12:00:11.874Z,2376
2017-12-03T12:01:21.953Z,2404
2017-12-03T12:02:32.028Z,2432
2017-12-03T12:03:42.097Z,2452
2017-12-03T12:04:52.169Z,2456
2017-12-03T12:06:02.016Z,2464
2017-12-03T12:07:11.879Z,2464
2017-12-03T12:08:21.960Z,2464
2017-12-03T12:09:32.055Z,2472
2017-12-03T12:10:41.845Z,2472
2017-12-03T12:11:51.946Z,2476
2017-12-03T12:13:02.027Z,2480
2017-12-03T12:14:11.601Z,2488
2017-12-03T12:15:21.682Z,2488
2017-12-03T12:16:31.475Z,2476
2017-12-03T12:17:41.556Z,2464
2017-12-03T12:18:51.687Z,2432
2017-12-03T12:20:01.494Z,2392
2017-12-03T12:21:11.300Z,2356
2017-12-03T12:22:20.904Z,2324
2017-12-03T12:23:30.731Z,2296
2017-12-03T12:24:40.852Z,2260
2017-12-03T12:25:50.919Z,2224
2017-12-03T12:27:00.453Z,2164
2017-12-03T12:28:10.271Z,2104
2017-12-03T12:29:19.843Z,2048
2017-12-03T12:30:29.451Z,2008
2017-12-03T12:31:39.534Z,1964
2017-12-03T12:32:49.371Z,1920
2017-12-03T12:33:59.447Z,1892
2017-12-03T12:35:09.509Z,1848
2017-12-03T12:36:19.088Z,1816
2017-12-03T12:37:28.897Z,1788
2017-12-03T12:38:39.003Z,1768
2017-12-03T12:39:49.118Z,1732
2017-12-03T12:40:59.230Z,1672
2017-12-03T12:42:09.038Z,1612
2017-12-03T12:43:18.852Z,1552
2017-12-03T12:44:28.908Z,1520
2017-12-03T12:45:38.982Z,1520
2017-12-03T12:46:49.096Z,1520
2017-12-03T12:47:58.963Z,1524
2017-12-03T12:49:08.763Z,1496
2017-12-03T12:50:18.593Z,1472
2017-12-03T12:51:28.637Z,1476
2017-12-03T12:52:38.709Z,1492
2017-12-03T12:53:48.825Z,1508
2017-12-03T12:54:58.964Z,1516
2017-12-03T12:56:09.054Z,1524
2017-12-03T12:57:18.852Z,1512
2017-12-03T12:58:28.922Z,1492
2017-12-03T12:59:38.778Z,1468
2017-12-03T13:00:48.858Z,1448
2017-12-03T13:01:58.943Z,1436
2017-12-03T13:03:09.001Z,1404
2017-12-03T13:04:18.835Z,1376
2017-12-03T13:05:28.987Z,1360
2017-12-03T13:06:38.818Z,1340
2017-12-03T13:07:48.889Z,1324
2017-12-03T13:08:58.955Z,1312
2017-12-03T13:10:08.778Z,1292
2017-12-03T13:11:18.916Z,1260
2017-12-03T13:12:28.730Z,1236
2017-12-03T13:13:38.541Z,1220
2017-12-03T13:14:48.609Z,1212
2017-12-03T13:15:58.422Z,1224
2017-12-03T13:17:08.268Z,1244
2017-12-03T13:18:18.075Z,1276
2017-12-03T13:19:27.935Z,1320
2017-12-03T13:20:38.036Z,1364
2017-12-03T13:21:47.853Z,1400
2017-12-03T13:22:58.048Z,1428
2017-12-03T13:24:08.369Z,1432
2017-12-03T13:25:18.209Z,1440
2017-12-03T13:26:28.038Z,1456
2017-12-03T13:27:38.102Z,1464
2017-12-03T13:28:47.711Z,1472
2017-12-03T13:29:57.840Z,1472
2017-12-03T13:31:07.658Z,1460
2017-12-03T13:32:17.769Z,1420
2017-12-03T13:33:27.832Z,1368
2017-12-03T13:34:37.699Z,1324
2017-12-03T13:35:47.234Z,1272
2017-12-03T13:36:57.306Z,1220
2017-12-03T13:38:06.846Z,1172
2017-12-03T13:39:16.648Z,1116
2017-12-03T13:40:26.828Z,1056
2017-12-03T13:41:36.682Z,1004
2017-12-03T13:42:46.492Z,952
2017-12-03T13:43:56.576Z,912
2017-12-03T13:45:06.627Z,892
2017-12-03T13:46:16.726Z,892
2017-12-03T13:47:26.273Z,896
2017-12-03T13:48:36.105Z,904
2017-12-03T13:49:46.017Z,900
2017-12-03T13:50:55.821Z,888
2017-12-03T13:52:05.428Z,872
2017-12-03T13:53:15.246Z,868
2017-12-03T13:54:25.060Z,876
2017-12-03T13:55:34.860Z,884
2017-12-03T13:56:44.398Z,892
2017-12-03T13:57:54.476Z,896
2017-12-03T13:59:04.280Z,884
2017-12-03T14:00:15.465Z,872
2017-12-03T14:01:25.284Z,860
2017-12-03T14:02:34.855Z,860
2017-12-03T14:03:44.708Z,852
2017-12-03T14:04:54.800Z,832
2017-12-03T14:06:04.883Z,820
2017-12-03T14:07:14.449Z,796
2017-12-03T14:08:24.541Z,764
2017-12-03T14:09:34.676Z,728
2017-12-03T14:10:44.766Z,700
2017-12-03T14:11:54.582Z,668
2017-12-03T14:13:04.384Z,640
2017-12-03T14:14:14.465Z,616
2017-12-03T14:15:24.026Z,596
2017-12-03T14:16:33.576Z,576
2017-12-03T14:17:43.141Z,564
2017-12-03T14:18:53.201Z,548
2017-12-03T14:20:03.285Z,536
2017-12-03T14:21:13.426Z,524
2017-12-03T14:22:23.498Z,512
2017-12-03T14:23:33.597Z,508
2017-12-03T14:24:43.682Z,500
2017-12-03T14:25:53.775Z,496
2017-12-03T14:27:03.870Z,496
2017-12-03T14:28:13.962Z,480
2017-12-03T14:29:24.067Z,472
2017-12-03T14:30:34.127Z,464
2017-12-03T14:31:44.219Z,448
2017-12-03T14:32:54.365Z,432
2017-12-03T14:34:04.230Z,412
2017-12-03T14:35:14.322Z,392
2017-12-03T14:36:24.395Z,376
2017-12-03T14:37:34.917Z,356
2017-12-03T14:39:00.550Z,336
2017-12-03T14:40:10.676Z,308
2017-12-03T14:41:20.815Z,292
2017-12-03T14:42:30.633Z,272
2017-12-03T14:43:41.838Z,256
2017-12-03T14:44:51.960Z,240
2017-12-03T14:46:02.015Z,224
2017-12-03T14:47:11.549Z,204
2017-12-03T14:48:21.375Z,188
2017-12-03T14:49:31.440Z,176
2017-12-03T14:50:41.284Z,160
2017-12-03T14:51:50.817Z,144
2017-12-03T14:53:00.661Z,136
2017-12-03T14:54:10.731Z,124
2017-12-03T14:55:20.724Z,116
2017-12-03T14:56:30.857Z,100
2017-12-03T14:57:40.937Z,96
2017-12-03T14:58:50.746Z,88
2017-12-03T15:00:00.831Z,76
2017-12-03T15:01:10.908Z,72
2017-12-03T15:02:21.026Z,64
2017-12-03T15:03:31.772Z,60
2017-12-03T15:04:41.589Z,52
2017-12-03T15:05:51.388Z,44
2017-12-03T15:07:01.211Z,40
2017-12-03T15:08:11.992Z,36
2017-12-03T15:09:22.097Z,32
2017-12-03T15:10:31.927Z,24
2017-12-03T15:11:42.015Z,24
2017-12-03T15:12:51.807Z,20
2017-12-03T15:14:01.421Z,16
2017-12-03T15:15:11.572Z,16
2017-12-03T15:16:21.776Z,12
2017-12-03T15:17:32.170Z,12
2017-12-03T15:18:41.787Z,8
2017-12-03T15:19:51.686Z,8
2017-12-03T15:21:01.252Z,8
2017-12-03T15:22:11.344Z,4
2017-12-03T15:23:21.449Z,4
2017-12-03T15:24:31.210Z,4
2017-12-03T15:25:41.062Z,4
2017-12-03T15:26:51.149Z,4
2017-12-03T15:28:01.232Z,4
2017-12-03T15:29:11.319Z,0
2017-12-03T15:30:21.386Z,0
2017-12-03T15:31:31.216Z,4
2017-12-03T15:32:41.289Z,4
2017-12-03T15:33:51.100Z,0
2017-12-03T15:35:01.178Z,0
2017-12-03T15:36:11.283Z,0
2017-12-03T15:37:21.128Z,0
2017-12-03T15:38:30.942Z,0
2017-12-03T15:39:40.822Z,0
2017-12-03T15:40:50.630Z,0
2017-12-03T15:42:00.706Z,0
2017-12-03T15:43:10.830Z,0
2017-12-03T15:44:20.372Z,0
2017-12-03T15:45:30.448Z,0
2017-12-03T15:46:40.529Z,0
2017-12-03T15:47:50.597Z,0
2017-12-03T15:49:00.649Z,0
2017-12-03T15:50:10.477Z,0
2017-12-03T15:51:21.440Z,0
2017-12-03T15:52:31.509Z,0
2017-12-03T15:53:41.610Z,0
2017-12-03T15:54:51.153Z,0
2017-12-03T15:56:00.995Z,0
2017-12-03T15:57:10.543Z,0
2017-12-03T15:58:20.367Z,0
2017-12-03T15:59:30.173Z,0
2017-12-03T16:00:39.773Z,0
2017-12-03T16:01:49.842Z,0
2017-12-03T16:02:59.658Z,0
2017-12-03T16:04:09.748Z,0
2017-12-03T16:05:19.827Z,0
2017-12-03T16:06:29.855Z,0
2017-12-03T16:07:39.683Z,0
2017-12-03T16:08:49.554Z,0
2017-12-03T16:09:59.402Z,0
2017-12-03T16:11:09.223Z,0
2017-12-03T16:12:19.723Z,0
2017-12-03T16:13:29.527Z,0
2017-12-03T16:14:39.703Z,0
2017-12-03T16:15:49.784Z,0
2017-12-03T16:16:59.631Z,0
2017-12-03T16:18:09.750Z,0
2017-12-03T16:19:19.560Z,0
2017-12-03T16:20:29.377Z,0
2017-12-03T16:21:39.176Z,0
2017-12-03T16:22:48.722Z,0
2017-12-03T16:23:58.001Z,0
2017-12-03T16:25:07.828Z,0
2017-12-03T16:26:19.097Z,0
2017-12-03T16:27:28.666Z,0
2017-12-03T16:28:38.753Z,0
2017-12-03T16:29:48.648Z,0
2017-12-03T16:30:58.457Z,0
2017-12-03T16:32:08.557Z,0
2017-12-03T16:33:18.688Z,0
2017-12-03T16:34:28.611Z,0
2017-12-03T16:35:38.486Z,0
2017-12-03T16:36:48.571Z,0
2017-12-03T16:38:25.367Z,0
2017-12-03T16:39:35.532Z,0
2017-12-03T16:40:49.679Z,0
2017-12-03T16:42:00.127Z,0
2017-12-03T16:43:10.233Z,0
2017-12-03T16:44:20.325Z,0
2017-12-03T16:45:30.396Z,0
2017-12-03T16:46:40.553Z,0
2017-12-03T16:47:50.639Z,0
2017-12-03T16:49:00.717Z,0
2017-12-03T16:50:11.241Z,0
2017-12-03T16:51:21.067Z,0
2017-12-03T16:52:31.224Z,0
2017-12-03T16:53:41.311Z,0
2017-12-03T16:54:51.126Z,0
2017-12-03T16:56:01.230Z,0